sensor_id;sensor_type;location;lat;lon;timestamp;pressure;altitude;pressure_sealevel;temperature;humidity
39267;BME280;24967;51.154;13.812;2023-04-25T00:01:48;98653.03;;;10.19;64.00
39267;BME280;24967;51.154;13.812;2023-04-25T00:04:16;98646.72;;;10.28;63.97
39267;BME280;24967;51.154;13.812;2023-04-25T00:06:42;98652.53;;;10.23;63.98
39267;BME280;24967;51.154;13.812;2023-04-25T00:09:10;98654.66;;;10.44;63.83
39267;BME280;24967;51.154;13.812;2023-04-25T00:11:37;98650.69;;;10.40;64.06
39267;BME280;24967;51.154;13.812;2023-04-25T00:14:04;98654.00;;;10.34;64.61
39267;BME280;24967;51.154;13.812;2023-04-25T00:16:31;98647.56;;;10.28;64.72
39267;BME280;24967;51.154;13.812;2023-04-25T00:19:00;98639.78;;;10.27;64.79
39267;BME280;24967;51.154;13.812;2023-04-25T00:21:28;98646.22;;;10.32;65.00
39267;BME280;24967;51.154;13.812;2023-04-25T00:23:56;98649.38;;;10.36;64.96
39267;BME280;24967;51.154;13.812;2023-04-25T00:26:24;98644.72;;;10.38;65.08
39267;BME280;24967;51.154;13.812;2023-04-25T00:28:51;98649.38;;;10.36;65.03
39267;BME280;24967;51.154;13.812;2023-04-25T00:31:17;98652.03;;;10.36;65.00
39267;BME280;24967;51.154;13.812;2023-04-25T00:33:44;98652.03;;;10.36;65.30
39267;BME280;24967;51.154;13.812;2023-04-25T00:36:10;98645.88;;;10.36;65.42
39267;BME280;24967;51.154;13.812;2023-04-25T00:38:37;98644.41;;;10.33;65.30
39267;BME280;24967;51.154;13.812;2023-04-25T00:41:04;98645.56;;;10.30;65.74
39267;BME280;24967;51.154;13.812;2023-04-25T00:43:33;98648.56;;;10.27;65.75
39267;BME280;24967;51.154;13.812;2023-04-25T00:46:00;98645.09;;;10.27;65.79
39267;BME280;24967;51.154;13.812;2023-04-25T00:48:27;98645.41;;;10.32;66.08
39267;BME280;24967;51.154;13.812;2023-04-25T00:50:54;98636.28;;;10.26;66.09
39267;BME280;24967;51.154;13.812;2023-04-25T00:53:21;98638.94;;;10.26;65.95
39267;BME280;24967;51.154;13.812;2023-04-25T00:55:48;98637.44;;;10.24;65.74
39267;BME280;24967;51.154;13.812;2023-04-25T00:58:16;98640.22;;;10.22;65.61
39267;BME280;24967;51.154;13.812;2023-04-25T01:00:44;98633.47;;;10.20;65.61
39267;BME280;24967;51.154;13.812;2023-04-25T01:03:12;98634.97;;;10.14;65.16
39267;BME280;24967;51.154;13.812;2023-04-25T01:05:39;98633.63;;;10.10;65.21
39267;BME280;24967;51.154;13.812;2023-04-25T01:08:07;98633.31;;;10.05;65.35
39267;BME280;24967;51.154;13.812;2023-04-25T01:10:34;98624.34;;;9.98;65.15
39267;BME280;24967;51.154;13.812;2023-04-25T01:13:00;98625.84;;;9.92;65.21
39267;BME280;24967;51.154;13.812;2023-04-25T01:15:27;98638.16;;;9.85;65.15
39267;BME280;24967;51.154;13.812;2023-04-25T01:17:55;98628.41;;;9.77;65.07
39267;BME280;24967;51.154;13.812;2023-04-25T01:20:22;98632.53;;;9.72;65.25
39267;BME280;24967;51.154;13.812;2023-04-25T01:22:50;98630.56;;;9.66;65.49
39267;BME280;24967;51.154;13.812;2023-04-25T01:25:18;98635.69;;;9.59;65.60
39267;BME280;24967;51.154;13.812;2023-04-25T01:27:45;98631.19;;;9.68;65.29
39267;BME280;24967;51.154;13.812;2023-04-25T01:30:12;98640.81;;;9.93;65.55
39267;BME280;24967;51.154;13.812;2023-04-25T01:32:39;98631.84;;;10.02;66.21
39267;BME280;24967;51.154;13.812;2023-04-25T01:35:08;98630.72;;;9.64;68.24
39267;BME280;24967;51.154;13.812;2023-04-25T01:37:35;98632.34;;;9.40;69.61
39267;BME280;24967;51.154;13.812;2023-04-25T01:40:04;98639.78;;;9.12;71.52
39267;BME280;24967;51.154;13.812;2023-04-25T01:42:31;98635.97;;;9.07;72.21
39267;BME280;24967;51.154;13.812;2023-04-25T01:44:58;98633.13;;;8.92;72.72
39267;BME280;24967;51.154;13.812;2023-04-25T01:47:25;98628.16;;;8.97;73.34
39267;BME280;24967;51.154;13.812;2023-04-25T01:49:51;98636.16;;;9.05;72.45
39267;BME280;24967;51.154;13.812;2023-04-25T01:52:18;98633.16;;;9.08;72.77
39267;BME280;24967;51.154;13.812;2023-04-25T01:54:44;98623.00;;;8.95;72.69
39267;BME280;24967;51.154;13.812;2023-04-25T01:57:13;98624.13;;;8.77;74.36
39267;BME280;24967;51.154;13.812;2023-04-25T01:59:40;98627.31;;;8.88;74.02
39267;BME280;24967;51.154;13.812;2023-04-25T02:02:06;98624.66;;;8.88;73.46
39267;BME280;24967;51.154;13.812;2023-04-25T02:04:33;98619.47;;;8.62;74.19
39267;BME280;24967;51.154;13.812;2023-04-25T02:06:59;98625.91;;;8.60;74.42
39267;BME280;24967;51.154;13.812;2023-04-25T02:09:26;98621.97;;;8.38;74.81
39267;BME280;24967;51.154;13.812;2023-04-25T02:11:53;98620.31;;;8.37;75.56
39267;BME280;24967;51.154;13.812;2023-04-25T02:14:20;98618.78;;;8.26;75.64
39267;BME280;24967;51.154;13.812;2023-04-25T02:16:47;98628.56;;;8.34;75.48
39267;BME280;24967;51.154;13.812;2023-04-25T02:19:13;98628.66;;;8.42;74.57
39267;BME280;24967;51.154;13.812;2023-04-25T02:21:40;98624.09;;;8.26;74.78
39267;BME280;24967;51.154;13.812;2023-04-25T02:24:07;98627.25;;;8.30;74.94
39267;BME280;24967;51.154;13.812;2023-04-25T02:26:34;98627.16;;;8.13;75.60
39267;BME280;24967;51.154;13.812;2023-04-25T02:29:00;98619.38;;;8.12;76.20
39267;BME280;24967;51.154;13.812;2023-04-25T02:31:28;98617.31;;;7.97;76.33
39267;BME280;24967;51.154;13.812;2023-04-25T02:33:55;98615.69;;;7.78;77.04
39267;BME280;24967;51.154;13.812;2023-04-25T02:36:21;98622.53;;;7.89;75.85
39267;BME280;24967;51.154;13.812;2023-04-25T02:38:49;98620.56;;;7.91;76.07
39267;BME280;24967;51.154;13.812;2023-04-25T02:41:15;98617.31;;;7.97;75.30
39267;BME280;24967;51.154;13.812;2023-04-25T02:43:42;98615.38;;;8.08;74.53
39267;BME280;24967;51.154;13.812;2023-04-25T02:46:08;98622.53;;;8.15;74.52
39267;BME280;24967;51.154;13.812;2023-04-25T02:48:36;98617.97;;;7.99;75.19
39267;BME280;24967;51.154;13.812;2023-04-25T02:51:02;98616.88;;;8.10;74.81
39267;BME280;24967;51.154;13.812;2023-04-25T02:53:29;98619.72;;;8.17;74.46
39267;BME280;24967;51.154;13.812;2023-04-25T02:55:55;98617.25;;;8.15;74.19
39267;BME280;24967;51.154;13.812;2023-04-25T02:58:23;98614.41;;;8.09;73.99
39267;BME280;24967;51.154;13.812;2023-04-25T03:00:50;98619.28;;;7.69;75.53
39267;BME280;24967;51.154;13.812;2023-04-25T03:03:17;98617.66;;;7.76;75.96
39267;BME280;24967;51.154;13.812;2023-04-25T03:05:48;98617.22;;;7.81;75.45
39267;BME280;24967;51.154;13.812;2023-04-25T03:08:15;98614.88;;;7.78;75.20
39267;BME280;24967;51.154;13.812;2023-04-25T03:10:42;98611.19;;;7.97;74.73
39267;BME280;24967;51.154;13.812;2023-04-25T03:13:08;98609.47;;;7.88;74.80
39267;BME280;24967;51.154;13.812;2023-04-25T03:15:35;98604.81;;;7.82;75.56
39267;BME280;24967;51.154;13.812;2023-04-25T03:18:02;98606.00;;;7.87;74.91
39267;BME280;24967;51.154;13.812;2023-04-25T03:20:29;98604.75;;;7.73;76.00
39267;BME280;24967;51.154;13.812;2023-04-25T03:22:57;98608.97;;;7.84;74.93
39267;BME280;24967;51.154;13.812;2023-04-25T03:25:23;98607.25;;;7.75;76.10
39267;BME280;24967;51.154;13.812;2023-04-25T03:27:50;98621.63;;;7.72;76.27
39267;BME280;24967;51.154;13.812;2023-04-25T03:30:17;98609.09;;;7.56;76.62
39267;BME280;24967;51.154;13.812;2023-04-25T03:32:43;98606.38;;;7.48;76.31
39267;BME280;24967;51.154;13.812;2023-04-25T03:35:10;98612.56;;;7.57;76.33
39267;BME280;24967;51.154;13.812;2023-04-25T03:37:36;98606.69;;;7.71;76.31
39267;BME280;24967;51.154;13.812;2023-04-25T03:40:06;98610.97;;;7.64;76.01
39267;BME280;24967;51.154;13.812;2023-04-25T03:42:32;98610.66;;;7.67;76.05
39267;BME280;24967;51.154;13.812;2023-04-25T03:44:59;98614.13;;;7.68;75.21
39267;BME280;24967;51.154;13.812;2023-04-25T03:47:25;98609.03;;;7.74;75.07
39267;BME280;24967;51.154;13.812;2023-04-25T03:49:52;98622.44;;;7.73;75.26
39267;BME280;24967;51.154;13.812;2023-04-25T03:52:18;98604.59;;;7.75;74.66
39267;BME280;24967;51.154;13.812;2023-04-25T03:54:45;98607.13;;;7.85;74.57
39267;BME280;24967;51.154;13.812;2023-04-25T03:57:12;98604.69;;;7.91;74.26
39267;BME280;24967;51.154;13.812;2023-04-25T03:59:39;98609.00;;;7.92;73.89
39267;BME280;24967;51.154;13.812;2023-04-25T04:02:05;98617.94;;;7.91;73.36
39267;BME280;24967;51.154;13.812;2023-04-25T04:04:32;98611.28;;;7.61;74.50
39267;BME280;24967;51.154;13.812;2023-04-25T04:06:58;98617.56;;;7.60;75.41
39267;BME280;24967;51.154;13.812;2023-04-25T04:09:25;98616.63;;;7.69;75.04
39267;BME280;24967;51.154;13.812;2023-04-25T04:11:52;98613.22;;;7.59;74.83
39267;BME280;24967;51.154;13.812;2023-04-25T04:14:20;98619.47;;;7.76;74.13
39267;BME280;24967;51.154;13.812;2023-04-25T04:16:46;98624.09;;;7.74;74.60
39267;BME280;24967;51.154;13.812;2023-04-25T04:19:13;98621.91;;;7.69;74.59
39267;BME280;24967;51.154;13.812;2023-04-25T04:21:39;98618.53;;;7.59;74.98
39267;BME280;24967;51.154;13.812;2023-04-25T04:24:06;98625.47;;;7.78;74.35
39267;BME280;24967;51.154;13.812;2023-04-25T04:26:33;98625.09;;;7.73;74.29
39267;BME280;24967;51.154;13.812;2023-04-25T04:29:00;98619.56;;;7.92;73.73
39267;BME280;24967;51.154;13.812;2023-04-25T04:31:27;98624.88;;;8.18;72.88
39267;BME280;24967;51.154;13.812;2023-04-25T04:33:55;98625.88;;;8.17;72.20
39267;BME280;24967;51.154;13.812;2023-04-25T04:36:21;98622.72;;;8.22;72.32
39267;BME280;24967;51.154;13.812;2023-04-25T04:38:48;98618.44;;;8.21;73.47
39267;BME280;24967;51.154;13.812;2023-04-25T04:41:14;98628.19;;;8.20;72.97
39267;BME280;24967;51.154;13.812;2023-04-25T04:43:41;98629.59;;;8.07;73.59
39267;BME280;24967;51.154;13.812;2023-04-25T04:46:08;98632.19;;;7.98;73.41
39267;BME280;24967;51.154;13.812;2023-04-25T04:48:36;98630.41;;;7.99;74.07
39267;BME280;24967;51.154;13.812;2023-04-25T04:51:05;98637.59;;;7.89;73.55
39267;BME280;24967;51.154;13.812;2023-04-25T04:53:32;98635.19;;;8.03;74.17
39267;BME280;24967;51.154;13.812;2023-04-25T04:55:58;98633.50;;;7.94;73.34
39267;BME280;24967;51.154;13.812;2023-04-25T04:58:25;98646.81;;;8.11;73.21
39267;BME280;24967;51.154;13.812;2023-04-25T05:00:53;98643.94;;;7.96;73.72
39267;BME280;24967;51.154;13.812;2023-04-25T05:03:20;98648.53;;;7.94;73.14
39267;BME280;24967;51.154;13.812;2023-04-25T05:05:48;98651.00;;;7.87;73.72
39267;BME280;24967;51.154;13.812;2023-04-25T05:08:14;98648.78;;;7.83;73.58
39267;BME280;24967;51.154;13.812;2023-04-25T05:10:41;98643.34;;;8.10;73.44
39267;BME280;24967;51.154;13.812;2023-04-25T05:13:07;98651.47;;;8.17;73.04
39267;BME280;24967;51.154;13.812;2023-04-25T05:15:34;98642.13;;;8.31;72.68
39267;BME280;24967;51.154;13.812;2023-04-25T05:18:00;98649.56;;;8.27;71.33
39267;BME280;24967;51.154;13.812;2023-04-25T05:20:27;98653.34;;;8.24;70.28
39267;BME280;24967;51.154;13.812;2023-04-25T05:22:54;98647.34;;;8.40;70.90
39267;BME280;24967;51.154;13.812;2023-04-25T05:25:21;98659.47;;;8.93;69.11
39267;BME280;24967;51.154;13.812;2023-04-25T05:27:47;98657.34;;;9.13;67.57
39267;BME280;24967;51.154;13.812;2023-04-25T05:30:14;98653.94;;;9.46;67.04
39267;BME280;24967;51.154;13.812;2023-04-25T05:32:40;98650.09;;;9.32;66.24
39267;BME280;24967;51.154;13.812;2023-04-25T05:35:07;98644.44;;;9.92;64.99
39267;BME280;24967;51.154;13.812;2023-04-25T05:37:34;98644.59;;;10.07;64.29
39267;BME280;24967;51.154;13.812;2023-04-25T05:40:02;98642.41;;;10.19;63.29
39267;BME280;24967;51.154;13.812;2023-04-25T05:42:31;98655.16;;;10.40;61.69
39267;BME280;24967;51.154;13.812;2023-04-25T05:44:58;98643.16;;;10.52;61.34
39267;BME280;24967;51.154;13.812;2023-04-25T05:47:24;98648.38;;;10.76;60.59
39267;BME280;24967;51.154;13.812;2023-04-25T05:49:51;98653.78;;;11.22;59.61
39267;BME280;24967;51.154;13.812;2023-04-25T05:52:18;98641.66;;;11.20;59.01
39267;BME280;24967;51.154;13.812;2023-04-25T05:54:44;98649.88;;;10.79;58.98
39267;BME280;24967;51.154;13.812;2023-04-25T05:57:20;98648.44;;;10.99;58.77
39267;BME280;24967;51.154;13.812;2023-04-25T05:59:46;98652.88;;;10.76;59.17
39267;BME280;24967;51.154;13.812;2023-04-25T06:02:13;98652.16;;;10.51;59.46
39267;BME280;24967;51.154;13.812;2023-04-25T06:04:39;98645.13;;;11.43;58.70
39267;BME280;24967;51.154;13.812;2023-04-25T06:07:06;98645.44;;;11.03;57.38
39267;BME280;24967;51.154;13.812;2023-04-25T06:09:33;98653.31;;;11.42;57.72
39267;BME280;24967;51.154;13.812;2023-04-25T06:12:00;98650.88;;;11.78;56.93
39267;BME280;24967;51.154;13.812;2023-04-25T06:14:28;98659.78;;;10.93;58.06
39267;BME280;24967;51.154;13.812;2023-04-25T06:16:55;98662.16;;;11.11;58.47
39267;BME280;24967;51.154;13.812;2023-04-25T06:19:22;98654.50;;;11.39;57.64
39267;BME280;24967;51.154;13.812;2023-04-25T06:21:48;98660.81;;;11.15;56.75
39267;BME280;24967;51.154;13.812;2023-04-25T06:24:14;98667.41;;;11.19;57.59
39267;BME280;24967;51.154;13.812;2023-04-25T06:26:41;98663.88;;;11.27;56.77
39267;BME280;24967;51.154;13.812;2023-04-25T06:29:07;98663.28;;;10.86;58.38
39267;BME280;24967;51.154;13.812;2023-04-25T06:31:35;98663.47;;;10.84;58.79
39267;BME280;24967;51.154;13.812;2023-04-25T06:34:02;98669.63;;;10.76;59.14
39267;BME280;24967;51.154;13.812;2023-04-25T06:36:28;98664.56;;;10.59;58.70
39267;BME280;24967;51.154;13.812;2023-04-25T06:38:55;98662.56;;;10.61;59.67
39267;BME280;24967;51.154;13.812;2023-04-25T06:41:22;98662.34;;;10.23;59.70
39267;BME280;24967;51.154;13.812;2023-04-25T06:43:48;98665.78;;;10.48;59.20
39267;BME280;24967;51.154;13.812;2023-04-25T06:46:15;98665.16;;;10.29;60.46
39267;BME280;24967;51.154;13.812;2023-04-25T06:48:42;98659.19;;;10.36;60.75
39267;BME280;24967;51.154;13.812;2023-04-25T06:51:09;98661.00;;;10.19;59.98
39267;BME280;24967;51.154;13.812;2023-04-25T06:53:35;98660.84;;;10.04;60.61
39267;BME280;24967;51.154;13.812;2023-04-25T06:56:02;98662.72;;;9.87;60.63
39267;BME280;24967;51.154;13.812;2023-04-25T06:58:29;98663.34;;;9.89;61.29
39267;BME280;24967;51.154;13.812;2023-04-25T07:00:56;98664.00;;;10.07;61.33
39267;BME280;24967;51.154;13.812;2023-04-25T07:03:22;98660.84;;;10.20;60.37
39267;BME280;24967;51.154;13.812;2023-04-25T07:05:50;98657.34;;;10.36;59.58
39267;BME280;24967;51.154;13.812;2023-04-25T07:08:17;98668.56;;;10.54;60.01
39267;BME280;24967;51.154;13.812;2023-04-25T07:10:43;98659.31;;;10.42;59.68
39267;BME280;24967;51.154;13.812;2023-04-25T07:13:11;98660.88;;;10.68;59.19
39267;BME280;24967;51.154;13.812;2023-04-25T07:15:37;98657.94;;;10.54;59.69
39267;BME280;24967;51.154;13.812;2023-04-25T07:18:04;98661.97;;;10.82;59.21
39267;BME280;24967;51.154;13.812;2023-04-25T07:20:30;98666.97;;;10.76;58.46
39267;BME280;24967;51.154;13.812;2023-04-25T07:22:59;98673.22;;;10.92;59.28
39267;BME280;24967;51.154;13.812;2023-04-25T07:25:25;98663.22;;;11.02;58.47
39267;BME280;24967;51.154;13.812;2023-04-25T07:27:52;98677.34;;;11.03;58.02
39267;BME280;24967;51.154;13.812;2023-04-25T07:30:18;98666.94;;;10.93;58.15
39267;BME280;24967;51.154;13.812;2023-04-25T07:32:45;98672.63;;;10.82;59.75
39267;BME280;24967;51.154;13.812;2023-04-25T07:35:11;98670.75;;;10.90;60.21
39267;BME280;24967;51.154;13.812;2023-04-25T07:37:38;98676.03;;;10.59;58.76
39267;BME280;24967;51.154;13.812;2023-04-25T07:40:07;98664.19;;;11.01;58.39
39267;BME280;24967;51.154;13.812;2023-04-25T07:42:34;98671.09;;;10.87;59.49
39267;BME280;24967;51.154;13.812;2023-04-25T07:45:01;98669.59;;;10.93;58.41
39267;BME280;24967;51.154;13.812;2023-04-25T07:47:28;98676.03;;;10.98;58.56
39267;BME280;24967;51.154;13.812;2023-04-25T07:49:55;98669.69;;;11.31;59.31
39267;BME280;24967;51.154;13.812;2023-04-25T07:52:23;98667.03;;;11.31;58.34
39267;BME280;24967;51.154;13.812;2023-04-25T07:54:49;98671.91;;;11.50;57.75
39267;BME280;24967;51.154;13.812;2023-04-25T07:57:17;98671.28;;;11.63;57.27
39267;BME280;24967;51.154;13.812;2023-04-25T07:59:44;98672.47;;;11.37;57.27
39267;BME280;24967;51.154;13.812;2023-04-25T08:02:11;98676.25;;;11.20;57.83
39267;BME280;24967;51.154;13.812;2023-04-25T08:04:37;98679.72;;;11.20;58.97
39267;BME280;24967;51.154;13.812;2023-04-25T08:07:04;98681.69;;;11.50;58.85
39267;BME280;24967;51.154;13.812;2023-04-25T08:09:30;98680.97;;;11.56;58.49
39267;BME280;24967;51.154;13.812;2023-04-25T08:11:59;98688.19;;;11.24;59.03
39267;BME280;24967;51.154;13.812;2023-04-25T08:14:28;98686.25;;;11.64;61.20
39267;BME280;24967;51.154;13.812;2023-04-25T08:17:00;98684.09;;;11.82;58.09
39267;BME280;24967;51.154;13.812;2023-04-25T08:19:26;98692.94;;;11.60;57.64
39267;BME280;24967;51.154;13.812;2023-04-25T08:21:53;98692.09;;;11.82;57.65
39267;BME280;24967;51.154;13.812;2023-04-25T08:24:20;98706.13;;;11.53;58.39
39267;BME280;24967;51.154;13.812;2023-04-25T08:26:47;98704.84;;;11.18;58.13
39267;BME280;24967;51.154;13.812;2023-04-25T08:29:13;98698.94;;;11.31;58.76
39267;BME280;24967;51.154;13.812;2023-04-25T08:31:41;98698.13;;;11.30;59.60
39267;BME280;24967;51.154;13.812;2023-04-25T08:34:08;98711.19;;;11.17;59.77
39267;BME280;24967;51.154;13.812;2023-04-25T08:36:35;98704.09;;;11.01;59.82
39267;BME280;24967;51.154;13.812;2023-04-25T08:39:01;98706.50;;;10.88;60.34
39267;BME280;24967;51.154;13.812;2023-04-25T08:41:27;98710.00;;;10.80;60.99
39267;BME280;24967;51.154;13.812;2023-04-25T08:43:56;98716.53;;;10.61;60.86
39267;BME280;24967;51.154;13.812;2023-04-25T08:46:25;98710.00;;;10.80;60.82
39267;BME280;24967;51.154;13.812;2023-04-25T08:48:57;98721.06;;;11.00;60.97
39267;BME280;24967;51.154;13.812;2023-04-25T08:51:26;98716.47;;;10.86;59.76
39267;BME280;24967;51.154;13.812;2023-04-25T08:54:04;98716.88;;;11.06;60.87
39267;BME280;24967;51.154;13.812;2023-04-25T08:56:34;98710.44;;;10.92;59.71
39267;BME280;24967;51.154;13.812;2023-04-25T08:59:01;98711.97;;;11.26;59.85
39267;BME280;24967;51.154;13.812;2023-04-25T09:01:28;98726.00;;;11.11;58.17
39267;BME280;24967;51.154;13.812;2023-04-25T09:03:57;98724.66;;;10.76;59.55
39267;BME280;24967;51.154;13.812;2023-04-25T09:06:23;98726.22;;;11.02;60.34
39267;BME280;24967;51.154;13.812;2023-04-25T09:08:51;98737.28;;;11.13;61.02
39267;BME280;24967;51.154;13.812;2023-04-25T09:11:18;98737.13;;;10.75;60.91
39267;BME280;24967;51.154;13.812;2023-04-25T09:13:45;98729.84;;;10.61;61.50
39267;BME280;24967;51.154;13.812;2023-04-25T09:16:11;98748.28;;;10.63;61.41
39267;BME280;24967;51.154;13.812;2023-04-25T09:18:39;98745.09;;;10.75;62.27
39267;BME280;24967;51.154;13.812;2023-04-25T09:21:09;98754.63;;;10.45;62.74
39267;BME280;24967;51.154;13.812;2023-04-25T09:23:40;98752.44;;;10.65;63.62
39267;BME280;24967;51.154;13.812;2023-04-25T09:26:07;98756.41;;;10.61;63.51
39267;BME280;24967;51.154;13.812;2023-04-25T09:28:33;98759.78;;;10.30;62.83
39267;BME280;24967;51.154;13.812;2023-04-25T09:31:00;98755.47;;;10.38;62.24
39267;BME280;24967;51.154;13.812;2023-04-25T09:33:52;98757.47;;;10.11;62.71
39267;BME280;24967;51.154;13.812;2023-04-25T09:36:55;98757.44;;;10.44;61.95
39267;BME280;24967;51.154;13.812;2023-04-25T09:39:21;98767.22;;;10.60;61.48
39267;BME280;24967;51.154;13.812;2023-04-25T09:41:53;98765.34;;;10.76;61.48
39267;BME280;24967;51.154;13.812;2023-04-25T09:44:23;98761.19;;;10.82;60.90
39267;BME280;24967;51.154;13.812;2023-04-25T09:46:49;98774.56;;;11.05;60.44
39267;BME280;24967;51.154;13.812;2023-04-25T09:49:19;98763.69;;;10.84;60.80
39267;BME280;24967;51.154;13.812;2023-04-25T09:51:55;98769.03;;;10.67;61.08
39267;BME280;24967;51.154;13.812;2023-04-25T09:54:22;98767.28;;;10.99;61.59
39267;BME280;24967;51.154;13.812;2023-04-25T09:56:51;98765.94;;;10.95;61.56
39267;BME280;24967;51.154;13.812;2023-04-25T09:59:19;98780.03;;;11.12;61.40
39267;BME280;24967;51.154;13.812;2023-04-25T10:01:48;98775.06;;;11.00;60.14
39267;BME280;24967;51.154;13.812;2023-04-25T10:04:19;98772.97;;;10.80;60.27
39267;BME280;24967;51.154;13.812;2023-04-25T10:06:48;98778.97;;;10.73;60.51
39267;BME280;24967;51.154;13.812;2023-04-25T10:09:19;98775.81;;;10.78;59.68
39267;BME280;24967;51.154;13.812;2023-04-25T10:11:47;98779.78;;;10.90;59.52
39267;BME280;24967;51.154;13.812;2023-04-25T10:14:14;98784.69;;;10.62;58.73
39267;BME280;24967;51.154;13.812;2023-04-25T10:16:42;98782.44;;;10.82;59.81
39267;BME280;24967;51.154;13.812;2023-04-25T10:19:09;98790.53;;;11.05;61.16
39267;BME280;24967;51.154;13.812;2023-04-25T10:21:48;98796.69;;;11.06;60.70
39267;BME280;24967;51.154;13.812;2023-04-25T10:24:17;98793.81;;;11.07;61.29
39267;BME280;24967;51.154;13.812;2023-04-25T10:26:46;98791.16;;;11.07;61.86
39267;BME280;24967;51.154;13.812;2023-04-25T10:29:21;98797.38;;;10.99;61.98
39267;BME280;24967;51.154;13.812;2023-04-25T10:31:48;98796.50;;;11.07;62.65
39267;BME280;24967;51.154;13.812;2023-04-25T10:34:15;98800.56;;;10.87;61.27
39267;BME280;24967;51.154;13.812;2023-04-25T10:36:42;98800.09;;;10.75;62.70
39267;BME280;24967;51.154;13.812;2023-04-25T10:39:08;98800.22;;;10.90;62.48
39267;BME280;24967;51.154;13.812;2023-04-25T10:41:47;98795.94;;;10.81;63.33
39267;BME280;24967;51.154;13.812;2023-04-25T10:44:14;98805.69;;;10.96;62.38
39267;BME280;24967;51.154;13.812;2023-04-25T10:46:41;98805.38;;;10.83;61.26
39267;BME280;24967;51.154;13.812;2023-04-25T10:49:07;98811.13;;;11.11;62.46
39267;BME280;24967;51.154;13.812;2023-04-25T10:51:44;98810.06;;;10.73;63.09
39267;BME280;24967;51.154;13.812;2023-04-25T10:54:36;98808.59;;;10.46;62.68
39267;BME280;24967;51.154;13.812;2023-04-25T10:57:36;98807.78;;;10.53;62.69
39267;BME280;24967;51.154;13.812;2023-04-25T11:00:12;98820.22;;;10.45;63.29
39267;BME280;24967;51.154;13.812;2023-04-25T11:02:44;98816.88;;;10.02;64.82
39267;BME280;24967;51.154;13.812;2023-04-25T11:05:19;98819.31;;;9.79;65.97
39267;BME280;24967;51.154;13.812;2023-04-25T11:07:50;98829.59;;;9.74;66.91
39267;BME280;24967;51.154;13.812;2023-04-25T11:10:17;98831.16;;;9.42;69.44
39267;BME280;24967;51.154;13.812;2023-04-25T11:12:46;98833.94;;;8.98;72.36
39267;BME280;24967;51.154;13.812;2023-04-25T11:15:12;98841.91;;;8.72;74.18
39267;BME280;24967;51.154;13.812;2023-04-25T11:17:40;98845.50;;;8.63;75.61
39267;BME280;24967;51.154;13.812;2023-04-25T11:20:07;98845.28;;;8.82;75.36
39267;BME280;24967;51.154;13.812;2023-04-25T11:22:37;98849.81;;;8.90;75.04
39267;BME280;24967;51.154;13.812;2023-04-25T11:25:05;98858.47;;;8.74;70.81
39267;BME280;24967;51.154;13.812;2023-04-25T11:27:32;98857.03;;;9.06;69.90
39267;BME280;24967;51.154;13.812;2023-04-25T11:30:11;98853.56;;;9.05;68.44
39267;BME280;24967;51.154;13.812;2023-04-25T11:32:39;98868.78;;;9.03;66.26
39267;BME280;24967;51.154;13.812;2023-04-25T11:35:06;98862.84;;;8.83;64.74
39267;BME280;24967;51.154;13.812;2023-04-25T11:37:33;98869.78;;;9.02;64.70
39267;BME280;24967;51.154;13.812;2023-04-25T11:40:00;98872.19;;;9.22;64.65
39267;BME280;24967;51.154;13.812;2023-04-25T11:42:26;98874.47;;;9.16;65.08
39267;BME280;24967;51.154;13.812;2023-04-25T11:44:53;98867.38;;;9.25;65.05
39267;BME280;24967;51.154;13.812;2023-04-25T11:47:28;98871.31;;;9.47;65.04
39267;BME280;24967;51.154;13.812;2023-04-25T11:49:54;98873.06;;;9.73;64.82
39267;BME280;24967;51.154;13.812;2023-04-25T11:52:21;98872.09;;;9.82;63.88
39267;BME280;24967;51.154;13.812;2023-04-25T11:54:47;98873.09;;;9.89;64.13
39267;BME280;24967;51.154;13.812;2023-04-25T11:57:14;98872.16;;;10.15;64.44
39267;BME280;24967;51.154;13.812;2023-04-25T11:59:40;98872.22;;;10.47;63.61
39267;BME280;24967;51.154;13.812;2023-04-25T12:02:07;98874.50;;;10.91;62.73
39267;BME280;24967;51.154;13.812;2023-04-25T12:04:34;98873.41;;;11.25;61.92
39267;BME280;24967;51.154;13.812;2023-04-25T12:07:01;98870.88;;;11.40;58.99
39267;BME280;24967;51.154;13.812;2023-04-25T12:09:29;98871.94;;;11.22;58.65
39267;BME280;24967;51.154;13.812;2023-04-25T12:11:57;98866.22;;;11.42;58.69
39267;BME280;24967;51.154;13.812;2023-04-25T12:14:25;98865.44;;;11.25;58.37
39267;BME280;24967;51.154;13.812;2023-04-25T12:17:00;98873.06;;;10.56;59.22
39267;BME280;24967;51.154;13.812;2023-04-25T12:19:54;98876.19;;;10.27;60.46
39267;BME280;24967;51.154;13.812;2023-04-25T12:22:32;98867.97;;;10.04;61.65
39267;BME280;24967;51.154;13.812;2023-04-25T12:24:59;98883.72;;;9.89;62.55
39267;BME280;24967;51.154;13.812;2023-04-25T12:27:25;98884.06;;;9.94;63.01
39267;BME280;24967;51.154;13.812;2023-04-25T12:29:53;98873.94;;;9.98;62.60
39267;BME280;24967;51.154;13.812;2023-04-25T12:32:20;98878.72;;;9.86;63.16
39267;BME280;24967;51.154;13.812;2023-04-25T12:34:48;98879.41;;;9.88;63.17
39267;BME280;24967;51.154;13.812;2023-04-25T12:37:15;98883.59;;;10.07;62.95
39267;BME280;24967;51.154;13.812;2023-04-25T12:39:41;98884.34;;;10.42;63.25
39267;BME280;24967;51.154;13.812;2023-04-25T12:42:08;98871.03;;;10.66;61.61
39267;BME280;24967;51.154;13.812;2023-04-25T12:44:37;98879.38;;;10.47;60.28
39267;BME280;24967;51.154;13.812;2023-04-25T12:47:03;98872.34;;;10.78;58.13
39267;BME280;24967;51.154;13.812;2023-04-25T12:49:30;98876.34;;;10.66;57.17
39267;BME280;24967;51.154;13.812;2023-04-25T12:51:58;98870.22;;;10.58;58.43
39267;BME280;24967;51.154;13.812;2023-04-25T12:54:25;98872.03;;;10.90;57.24
39267;BME280;24967;51.154;13.812;2023-04-25T12:56:51;98877.81;;;10.85;57.46
39267;BME280;24967;51.154;13.812;2023-04-25T12:59:18;98874.22;;;10.53;56.53